Time;durP1;ratioP1;P1;durP2;ratioP2;P2;SDS_P1;SDS_P2;PMS_P1;PMS_P2;Temp;Humidity;BMP_temperature;BMP_pressure;BME280_temperature;BME280_humidity;BME280_pressure;Samples;Min_cycle;Max_cycle;Signal;HPM_P1;HPM_P2
2022/02/25 00:01:27;;;;;;;;;;;;;;;20.49;37.71;101175.38;5108967;28;1906;-66
2022/02/25 00:03:53;;;;;;;;;;;;;;;20.80;36.96;101167.66;5076497;28;821;-66
2022/02/25 00:06:21;;;;;;;;;;;;;;;20.95;36.57;101168.59;5075584;28;996;-65
2022/02/25 00:08:46;;;;;;;;;;;;;;;21.11;36.42;101167.31;5076615;28;1156;-66
2022/02/25 00:11:12;;;;;;;;;;;;;;;20.52;37.55;101167.34;5076436;28;833;-66
2022/02/25 00:13:37;;;;;;;;;;;;;;;20.39;37.95;101170.78;5076600;28;1161;-66
2022/02/25 00:16:03;;;;;;;;;;;;;;;19.43;39.66;101168.38;5076537;28;879;-66
2022/02/25 00:18:28;;;;;;;;;;;;;;;20.10;38.76;101171.56;5076222;28;837;-66
2022/02/25 00:20:54;;;;;;;;;;;;;;;20.60;37.42;101162.31;5076515;28;881;-66
2022/02/25 00:23:19;;;;;;;;;;;;;;;20.83;37.06;101172.59;5076258;28;1917;-66
2022/02/25 00:25:45;;;;;;;;;;;;;;;21.09;36.44;101164.00;5076409;28;881;-66
2022/02/25 00:28:10;;;;;;;;;;;;;;;20.70;37.20;101150.38;5076409;28;814;-66
2022/02/25 00:30:36;;;;;;;;;;;;;;;20.40;37.91;101147.56;5076095;28;1503;-66
2022/02/25 00:33:02;;;;;;;;;;;;;;;20.01;38.71;101148.47;5075925;28;809;-66
2022/02/25 00:35:27;;;;;;;;;;;;;;;19.56;39.58;101142.09;5076214;28;884;-66
2022/02/25 00:37:53;;;;;;;;;;;;;;;20.47;37.68;101139.78;5076214;28;935;-66
2022/02/25 00:40:18;;;;;;;;;;;;;;;20.73;37.06;101145.06;5076692;28;762;-66
2022/02/25 00:42:44;;;;;;;;;;;;;;;20.93;36.73;101148.72;5076253;28;1985;-67
2022/02/25 00:45:09;;;;;;;;;;;;;;;21.10;36.41;101154.59;5075974;28;843;-67
2022/02/25 00:47:35;;;;;;;;;;;;;;;20.52;37.69;101149.94;5076109;28;734;-67
2022/02/25 00:50:00;;;;;;;;;;;;;;;20.38;37.88;101149.78;5075549;28;900;-67
2022/02/25 00:52:26;;;;;;;;;;;;;;;19.32;39.80;101156.56;5108802;28;805;-67
2022/02/25 00:54:51;;;;;;;;;;;;;;;20.39;37.89;101151.44;5076003;28;888;-67
2022/02/25 00:57:17;;;;;;;;;;;;;;;20.65;37.38;101140.13;5076088;28;884;-67
2022/02/25 00:59:42;;;;;;;;;;;;;;;20.97;36.62;101142.31;5076202;28;904;-67
2022/02/25 01:02:08;;;;;;;;;;;;;;;21.13;36.37;101144.91;5075337;28;1977;-67
2022/02/25 01:04:33;;;;;;;;;;;;;;;20.43;37.63;101135.94;5075753;28;931;-67
2022/02/25 01:06:58;;;;;;;;;;;;;;;20.50;37.61;101139.19;5075702;28;1074;-67
2022/02/25 01:09:25;;;;;;;;;;;;;;;19.61;39.34;101137.38;5076054;28;804;-67
2022/02/25 01:11:51;;;;;;;;;;;;;;;20.12;38.42;101143.69;5075599;28;845;-66
2022/02/25 01:14:16;;;;;;;;;;;;;;;20.58;37.50;101142.41;5075920;28;1068;-67
2022/02/25 01:16:42;;;;;;;;;;;;;;;20.84;36.76;101140.25;5075803;28;876;-67
2022/02/25 01:19:07;;;;;;;;;;;;;;;21.07;36.34;101141.38;5075166;28;998;-66
2022/02/25 01:21:33;;;;;;;;;;;;;;;20.71;36.99;101135.44;5074345;28;1902;-66
2022/02/25 01:23:58;;;;;;;;;;;;;;;20.47;37.82;101136.19;5075638;28;892;-67
2022/02/25 01:26:24;;;;;;;;;;;;;;;20.04;38.36;101134.06;5075736;28;736;-67
2022/02/25 01:28:49;;;;;;;;;;;;;;;19.67;39.64;101129.91;5075404;28;851;-66
2022/02/25 01:31:17;;;;;;;;;;;;;;;20.51;37.62;101129.78;5074931;28;860;-65
2022/02/25 01:33:42;;;;;;;;;;;;;;;20.77;36.90;101129.53;5075613;28;841;-65
2022/02/25 01:36:08;;;;;;;;;;;;;;;20.97;36.58;101133.19;5075623;28;788;-65
2022/02/25 01:38:33;;;;;;;;;;;;;;;20.91;36.54;101134.38;5075731;28;805;-65
2022/02/25 01:41:00;;;;;;;;;;;;;;;20.41;37.62;101135.44;5075017;28;882;-65
2022/02/25 01:43:26;;;;;;;;;;;;;;;20.23;38.04;101125.06;5075354;28;1910;-65
2022/02/25 01:45:52;;;;;;;;;;;;;;;19.55;39.75;101129.44;5077106;28;859;-65
2022/02/25 01:48:19;;;;;;;;;;;;;;;20.42;37.69;101120.47;5079104;28;749;-65
2022/02/25 01:50:45;;;;;;;;;;;;;;;20.76;36.85;101116.00;5079046;28;806;-65
2022/02/25 01:53:10;;;;;;;;;;;;;;;20.92;36.61;101116.69;5111268;28;841;-65
2022/02/25 01:55:37;;;;;;;;;;;;;;;21.11;36.26;101125.00;5079126;28;889;-65
2022/02/25 01:58:02;;;;;;;;;;;;;;;20.60;37.25;101123.63;5078978;28;807;-65
2022/02/25 02:00:28;;;;;;;;;;;;;;;20.42;37.75;101122.44;5078851;28;716;-64
2022/02/25 02:02:53;;;;;;;;;;;;;;;19.63;39.08;101120.56;5078394;28;1909;-64
2022/02/25 02:05:19;;;;;;;;;;;;;;;19.83;38.93;101112.16;5078668;28;895;-65
2022/02/25 02:07:45;;;;;;;;;;;;;;;20.49;37.50;101112.66;5078031;28;884;-65
2022/02/25 02:10:10;;;;;;;;;;;;;;;20.84;36.81;101118.13;5079056;28;855;-65
2022/02/25 02:12:36;;;;;;;;;;;;;;;21.06;36.31;101114.03;5078672;28;1021;-65
2022/02/25 02:15:04;;;;;;;;;;;;;;;21.08;36.13;101115.34;5078887;28;837;-65
2022/02/25 02:17:30;;;;;;;;;;;;;;;20.46;37.44;101110.50;5077857;28;851;-65
2022/02/25 02:19:55;;;;;;;;;;;;;;;20.26;37.75;101105.16;5078898;28;843;-65
2022/02/25 02:22:22;;;;;;;;;;;;;;;19.51;39.64;101104.34;5078390;28;1902;-65
2022/02/25 02:24:48;;;;;;;;;;;;;;;20.47;37.45;101106.63;5078400;28;769;-65
2022/02/25 02:27:13;;;;;;;;;;;;;;;20.79;36.80;101107.97;5078442;28;878;-65
2022/02/25 02:29:39;;;;;;;;;;;;;;;21.05;36.29;101106.84;5078408;28;843;-65
2022/02/25 02:32:04;;;;;;;;;;;;;;;21.13;36.02;101098.69;5077784;28;820;-65
2022/02/25 02:34:30;;;;;;;;;;;;;;;20.44;37.54;101101.69;5078178;28;1504;-65
2022/02/25 02:36:55;;;;;;;;;;;;;;;20.51;37.45;101091.13;5078195;28;782;-64
2022/02/25 02:39:20;;;;;;;;;;;;;;;19.47;39.69;101093.06;5078087;28;1068;-65
2022/02/25 02:41:47;;;;;;;;;;;;;;;20.10;38.45;101087.94;5077840;28;1908;-65
2022/02/25 02:44:12;;;;;;;;;;;;;;;20.71;37.18;101096.75;5077929;28;849;-65
2022/02/25 02:46:38;;;;;;;;;;;;;;;20.91;36.60;101084.63;5078273;28;949;-66
2022/02/25 02:49:03;;;;;;;;;;;;;;;21.19;35.96;101078.13;5077958;28;888;-67
2022/02/25 02:51:29;;;;;;;;;;;;;;;20.67;37.10;101096.47;5078387;28;861;-68
2022/02/25 02:53:54;;;;;;;;;;;;;;;20.42;37.45;101087.34;5078326;28;778;-68
2022/02/25 02:56:20;;;;;;;;;;;;;;;19.80;38.75;101085.13;5077639;28;845;-68
2022/02/25 02:58:54;;;;;;;;;;;;;;;19.77;39.09;101085.69;5077609;28;865;-68
2022/02/25 03:01:19;;;;;;;;;;;;;;;20.47;37.75;101084.53;5077778;28;843;-68
2022/02/25 03:03:45;;;;;;;;;;;;;;;20.76;36.92;101089.22;5077687;28;1913;-68
2022/02/25 03:06:10;;;;;;;;;;;;;;;21.04;36.33;101094.94;5077825;28;933;-68
2022/02/25 03:08:36;;;;;;;;;;;;;;;21.20;36.03;101087.28;5078137;28;777;-67
2022/02/25 03:11:01;;;;;;;;;;;;;;;20.51;37.37;101098.59;5077632;28;894;-67
2022/02/25 03:13:26;;;;;;;;;;;;;;;20.51;37.21;101091.13;5077290;28;1126;-68
2022/02/25 03:15:52;;;;;;;;;;;;;;;19.21;40.30;101094.31;5078181;28;867;-67
2022/02/25 03:18:18;;;;;;;;;;;;;;;20.44;37.35;101096.16;5077449;28;921;-67
2022/02/25 03:20:43;;;;;;;;;;;;;;;20.72;36.94;101095.59;5077650;28;868;-68
2022/02/25 03:23:09;;;;;;;;;;;;;;;21.03;36.22;101082.25;5077248;28;1917;-68
2022/02/25 03:25:34;;;;;;;;;;;;;;;21.26;35.89;101079.72;5077643;28;879;-68
2022/02/25 03:28:00;;;;;;;;;;;;;;;20.54;37.43;101073.13;5077423;28;745;-68
2022/02/25 03:30:25;;;;;;;;;;;;;;;20.47;37.33;101070.72;5076949;28;863;-68
2022/02/25 03:32:51;;;;;;;;;;;;;;;19.53;39.18;101068.19;5077014;28;896;-68
2022/02/25 03:35:16;;;;;;;;;;;;;;;20.17;38.24;101067.16;5076824;28;828;-67
2022/02/25 03:37:42;;;;;;;;;;;;;;;20.60;37.13;101068.38;5077202;28;844;-67
2022/02/25 03:40:08;;;;;;;;;;;;;;;20.92;36.43;101069.69;5076873;28;876;-67
2022/02/25 03:42:33;;;;;;;;;;;;;;;21.10;36.26;101066.13;5077163;28;1910;-67
2022/02/25 03:44:59;;;;;;;;;;;;;;;20.75;36.75;101059.09;5077213;28;832;-67
2022/02/25 03:47:24;;;;;;;;;;;;;;;20.47;37.40;101048.63;5076246;28;856;-68
2022/02/25 03:49:50;;;;;;;;;;;;;;;20.13;37.92;101056.97;5077192;28;825;-65
2022/02/25 03:52:15;;;;;;;;;;;;;;;19.64;39.30;101053.22;5077008;28;810;-65
2022/02/25 03:54:40;;;;;;;;;;;;;;;20.51;37.29;101055.19;5076632;28;754;-65
2022/02/25 03:57:06;;;;;;;;;;;;;;;20.79;36.82;101055.47;5076853;28;797;-66
2022/02/25 03:59:31;;;;;;;;;;;;;;;21.02;36.34;101050.19;5076725;28;884;-65
2022/02/25 04:01:57;;;;;;;;;;;;;;;21.23;35.79;101045.19;5076228;28;1977;-65
2022/02/25 04:04:23;;;;;;;;;;;;;;;20.47;37.23;101043.09;5076675;28;936;-65
2022/02/25 04:06:48;;;;;;;;;;;;;;;20.46;37.26;101035.09;5076737;28;836;-66
2022/02/25 04:09:18;;;;;;;;;;;;;;;19.46;39.35;101047.28;5075754;28;730;-65
2022/02/25 04:11:50;;;;;;;;;;;;;;;20.50;37.30;101039.75;5076314;28;832;-65
2022/02/25 04:14:15;;;;;;;;;;;;;;;20.77;36.84;101045.81;5063360;28;1148;-65
2022/02/25 04:16:41;;;;;;;;;;;;;;;21.06;36.17;101045.72;5062357;28;890;-65
2022/02/25 04:19:07;;;;;;;;;;;;;;;21.24;35.84;101049.59;5056607;28;846;-65
2022/02/25 04:21:32;;;;;;;;;;;;;;;20.60;36.91;101052.59;5056500;28;830;-66
2022/02/25 04:23:57;;;;;;;;;;;;;;;20.61;36.98;101067.25;5056016;28;1905;-66
2022/02/25 04:26:23;;;;;;;;;;;;;;;19.88;38.54;101063.53;5056076;28;786;-66
2022/02/25 04:28:48;;;;;;;;;;;;;;;20.24;37.83;101071.50;5055910;28;898;-66
2022/02/25 04:31:14;;;;;;;;;;;;;;;20.65;36.94;101076.59;5054559;28;1128;-66
2022/02/25 04:33:39;;;;;;;;;;;;;;;20.99;36.35;101072.91;5055247;28;1492;-65
2022/02/25 04:36:05;;;;;;;;;;;;;;;21.13;35.86;101076.56;5056077;28;743;-63
2022/02/25 04:38:31;;;;;;;;;;;;;;;20.84;36.30;101074.72;5055869;28;779;-66
2022/02/25 04:41:01;;;;;;;;;;;;;;;20.58;37.05;101076.13;5056107;28;741;-63
2022/02/25 04:43:29;;;;;;;;;;;;;;;20.25;37.63;101078.69;5056016;28;1977;-63
2022/02/25 04:45:55;;;;;;;;;;;;;;;19.36;39.38;101083.19;5057288;28;838;-63
2022/02/25 04:48:21;;;;;;;;;;;;;;;20.40;37.27;101086.81;5055435;28;1251;-63
2022/02/25 04:50:47;;;;;;;;;;;;;;;20.77;36.54;101090.84;5057889;28;1234;-61
2022/02/25 04:53:12;;;;;;;;;;;;;;;20.94;36.06;101095.06;5055979;28;1060;-62
2022/02/25 04:55:38;;;;;;;;;;;;;;;21.20;35.47;101098.34;5056184;28;725;-60
2022/02/25 04:58:03;;;;;;;;;;;;;;;20.58;36.73;101099.06;5055782;28;826;-61
2022/02/25 05:00:28;;;;;;;;;;;;;;;20.49;36.96;101109.09;5056367;28;1503;-60
2022/02/25 05:02:54;;;;;;;;;;;;;;;19.77;38.56;101112.47;5055404;28;1902;-62
2022/02/25 05:05:19;;;;;;;;;;;;;;;19.88;38.40;101111.31;5055089;28;840;-61
2022/02/25 05:07:45;;;;;;;;;;;;;;;20.54;36.94;101124.78;5055661;28;825;-61
2022/02/25 05:10:10;;;;;;;;;;;;;;;20.95;36.32;101135.44;5056049;28;825;-61
2022/02/25 05:12:36;;;;;;;;;;;;;;;21.02;35.97;101138.66;5056458;28;1053;-61
2022/02/25 05:20:30;;;;;;;;;;;;;;;20.22;37.51;101148.31;5075545;28;884;-65
2022/02/25 05:22:57;;;;;;;;;;;;;;;19.39;39.50;101151.59;5079145;28;1890;-67
2022/02/25 05:25:22;;;;;;;;;;;;;;;20.55;37.19;101148.53;5079424;28;892;-65
2022/02/25 05:27:51;;;;;;;;;;;;;;;20.85;36.47;101151.00;5079482;28;841;-63
2022/02/25 05:30:16;;;;;;;;;;;;;;;20.99;36.27;101159.41;5078847;28;908;-63
2022/02/25 05:32:42;;;;;;;;;;;;;;;21.26;35.57;101146.91;5079154;28;1087;-65
2022/02/25 05:35:09;;;;;;;;;;;;;;;20.47;36.97;101148.06;5079264;28;1222;-63
2022/02/25 05:37:35;;;;;;;;;;;;;;;20.39;37.38;101145.91;5079601;28;1206;-64
2022/02/25 05:40:01;;;;;;;;;;;;;;;19.39;39.29;101145.22;5079653;28;1138;-64
2022/02/25 05:42:27;;;;;;;;;;;;;;;20.51;37.23;101142.78;5078585;28;1984;-64
2022/02/25 05:44:52;;;;;;;;;;;;;;;20.81;36.38;101138.88;5079187;28;806;-64
2022/02/25 05:47:18;;;;;;;;;;;;;;;21.04;36.02;101139.16;5078626;28;1001;-63
2022/02/25 05:49:43;;;;;;;;;;;;;;;21.18;35.57;101134.59;5078772;28;1421;-68
2022/02/25 05:52:09;;;;;;;;;;;;;;;21.34;35.37;101131.63;5079293;28;1336;-64
2022/02/25 05:54:34;;;;;;;;;;;;;;;20.00;38.00;101139.34;5079045;28;825;-63
2022/02/25 05:57:00;;;;;;;;;;;;;;;19.71;38.74;101135.66;5078684;28;703;-63
2022/02/25 05:59:25;;;;;;;;;;;;;;;19.34;39.59;101140.56;5078312;28;803;-64
2022/02/25 06:01:51;;;;;;;;;;;;;;;20.39;37.28;101134.88;5079029;28;1910;-64
2022/02/25 06:04:16;;;;;;;;;;;;;;;20.72;36.58;101140.66;5079184;28;786;-64
2022/02/25 06:06:41;;;;;;;;;;;;;;;20.96;36.15;101137.91;5079013;28;740;-64
2022/02/25 06:09:07;;;;;;;;;;;;;;;21.12;35.75;101135.75;5078451;28;777;-64
2022/02/25 06:11:32;;;;;;;;;;;;;;;20.94;35.87;101137.34;5079062;28;780;-64
2022/02/25 06:13:58;;;;;;;;;;;;;;;19.59;38.88;101144.31;5077784;28;1114;-64
2022/02/25 06:16:23;;;;;;;;;;;;;;;19.45;39.21;101139.41;5077040;28;921;-64
2022/02/25 06:18:49;;;;;;;;;;;;;;;20.00;37.91;101138.53;5077791;28;853;-64
2022/02/25 06:21:15;;;;;;;;;;;;;;;20.51;37.14;101138.06;5077324;28;956;-64
2022/02/25 06:23:40;;;;;;;;;;;;;;;20.87;36.41;101149.91;5077149;28;1914;-64
2022/02/25 06:26:06;;;;;;;;;;;;;;;21.11;35.76;101149.88;5077429;28;862;-64
2022/02/25 06:28:31;;;;;;;;;;;;;;;21.00;35.84;101138.16;5077223;28;897;-64
2022/02/25 06:30:57;;;;;;;;;;;;;;;20.40;37.34;101139.28;5076309;28;839;-63
2022/02/25 06:33:22;;;;;;;;;;;;;;;20.18;37.26;101139.75;5076643;28;939;-64
2022/02/25 06:35:48;;;;;;;;;;;;;;;19.63;38.86;101142.63;5076971;28;893;-64
2022/02/25 06:38:13;;;;;;;;;;;;;;;20.53;36.77;101132.25;5077083;28;873;-64
2022/02/25 06:40:39;;;;;;;;;;;;;;;20.88;36.09;101132.19;5077401;28;800;-64
2022/02/25 06:43:04;;;;;;;;;;;;;;;21.06;35.85;101128.66;5072243;28;1914;-66
2022/02/25 06:45:30;;;;;;;;;;;;;;;21.19;35.41;101130.69;5077640;28;1217;-66
2022/02/25 06:47:55;;;;;;;;;;;;;;;20.48;36.79;101127.63;5087194;28;1027;-64
2022/02/25 06:50:21;;;;;;;;;;;;;;;20.38;37.04;101137.94;5083853;28;1322;-67
2022/02/25 06:52:46;;;;;;;;;;;;;;;19.47;39.05;101142.72;5077608;28;1538;-62
2022/02/25 06:55:13;;;;;;;;;;;;;;;20.44;36.94;101132.06;5078403;28;1280;-66
2022/02/25 06:57:40;;;;;;;;;;;;;;;20.80;36.24;101125.38;5076218;28;1314;-69
2022/02/25 07:00:06;;;;;;;;;;;;;;;20.99;35.84;101119.91;5076348;28;1045;-68
2022/02/25 07:02:31;;;;;;;;;;;;;;;21.20;35.33;101120.47;5075914;28;1976;-70
2022/02/25 07:04:57;;;;;;;;;;;;;;;20.56;36.56;101123.38;5076587;28;1194;-68
2022/02/25 07:07:22;;;;;;;;;;;;;;;20.47;36.99;101136.19;5081856;28;1559;-70
2022/02/25 07:09:48;;;;;;;;;;;;;;;19.78;38.10;101128.72;5075406;28;857;-69
2022/02/25 07:12:13;;;;;;;;;;;;;;;20.17;37.58;101124.31;5080583;28;1357;-68
2022/02/25 07:14:38;;;;;;;;;;;;;;;20.72;36.40;101126.84;5034037;28;1227364;-65
2022/02/25 07:17:04;;;;;;;;;;;;;;;20.96;36.05;101126.03;5077746;28;1403;-69
2022/02/25 07:19:29;;;;;;;;;;;;;;;21.09;35.74;101133.59;5077570;28;1506;-65
2022/02/25 07:21:55;;;;;;;;;;;;;;;20.92;35.60;101136.84;5083664;28;1914;-66
2022/02/25 07:24:20;;;;;;;;;;;;;;;20.60;36.49;101135.50;5076916;28;1186;-64
2022/02/25 07:26:46;;;;;;;;;;;;;;;20.02;37.39;101128.03;5079378;28;1462;-65
2022/02/25 07:29:11;;;;;;;;;;;;;;;19.91;37.97;101121.75;5076464;28;1261;-66
2022/02/25 07:31:37;;;;;;;;;;;;;;;20.58;36.48;101115.63;5077460;28;891;-65
2022/02/25 07:34:06;;;;;;;;;;;;;;;20.87;35.90;101128.59;5075827;28;1194;-65
2022/02/25 07:36:32;;;;;;;;;;;;;;;21.09;35.60;101119.75;5075535;28;1551;-63
2022/02/25 07:38:57;;;;;;;;;;;;;;;21.17;35.16;101116.34;5077836;28;1276;-65
2022/02/25 07:41:23;;;;;;;;;;;;;;;20.66;36.33;101120.53;5081423;28;1249;-68
2022/02/25 07:43:48;;;;;;;;;;;;;;;20.54;36.44;101120.09;5080163;28;1982;-62
2022/02/25 07:46:14;;;;;;;;;;;;;;;19.28;39.36;101122.41;5073721;28;1503;-65
2022/02/25 07:48:39;;;;;;;;;;;;;;;20.44;37.11;101122.94;5074314;28;1519;-68
2022/02/25 07:51:05;;;;;;;;;;;;;;;20.82;36.08;101115.66;5076211;28;1178;-65
2022/02/25 07:53:33;;;;;;;;;;;;;;;20.98;35.80;101123.78;5075923;28;1546;-64
2022/02/25 07:55:58;;;;;;;;;;;;;;;21.11;35.45;101114.78;5102066;28;1321;-66
2022/02/25 07:58:24;;;;;;;;;;;;;;;21.32;34.98;101129.16;5077135;28;1601;-64
2022/02/25 08:00:49;;;;;;;;;;;;;;;20.51;36.60;101131.75;5075433;28;1317;-65
2022/02/25 08:03:14;;;;;;;;;;;;;;;20.51;36.34;101126.22;5075727;28;1914;-69
2022/02/25 08:05:40;;;;;;;;;;;;;;;19.54;38.08;101130.53;5077494;28;1195;-71
2022/02/25 08:08:07;;;;;;;;;;;;;;;20.36;36.63;101124.41;5076129;28;1097;-68
2022/02/25 08:10:35;;;;;;;;;;;;;;;20.58;36.02;101125.84;5076431;28;1238;-65
2022/02/25 08:13:01;;;;;;;;;;;;;;;20.80;35.70;101122.59;5076085;28;1272;-67
2022/02/25 08:15:27;;;;;;;;;;;;;;;20.98;35.20;101129.31;5075372;28;1207;-64
2022/02/25 08:17:53;;;;;;;;;;;;;;;20.73;35.91;101122.13;5076148;28;1230;-63
2022/02/25 08:20:18;;;;;;;;;;;;;;;19.86;37.72;101126.50;5076345;28;1242;-63
2022/02/25 08:22:44;;;;;;;;;;;;;;;19.55;38.11;101123.91;5076021;28;1906;-64
2022/02/25 08:25:09;;;;;;;;;;;;;;;18.40;41.00;101125.41;5076779;28;813;-66
2022/02/25 08:27:35;;;;;;;;;;;;;;;19.88;37.81;101124.25;5075974;28;776;-67
2022/02/25 08:30:00;;;;;;;;;;;;;;;20.39;36.90;101114.72;5076441;28;1213;-66
2022/02/25 08:32:26;;;;;;;;;;;;;;;20.69;36.08;101113.59;5077400;28;1236;-66
2022/02/25 08:34:51;;;;;;;;;;;;;;;21.01;35.72;101106.59;5075532;28;1435;-71
2022/02/25 08:37:17;;;;;;;;;;;;;;;19.97;37.53;101111.50;5076325;28;1542;-69
2022/02/25 08:39:42;;;;;;;;;;;;;;;19.86;37.89;101119.03;5075356;28;1314;-69
2022/02/25 08:42:08;;;;;;;;;;;;;;;18.73;40.41;101111.28;5075218;28;1906;-69
2022/02/25 08:44:33;;;;;;;;;;;;;;;19.35;39.44;101113.81;5079840;28;1483;-66
2022/02/25 08:46:59;;;;;;;;;;;;;;;20.21;37.29;101116.28;5075511;28;1233;-61
2022/02/25 08:49:24;;;;;;;;;;;;;;;20.37;36.80;101114.19;5074644;28;1318;-63
2022/02/25 08:51:50;;;;;;;;;;;;;;;20.46;36.85;101121.53;5075527;28;1534;-68
2022/02/25 08:54:16;;;;;;;;;;;;;;;20.71;36.05;101125.19;5074873;28;1193;-65
2022/02/25 08:56:41;;;;;;;;;;;;;;;19.67;38.13;101111.41;5076162;28;1187;-65
2022/02/25 08:59:07;;;;;;;;;;;;;;;19.12;39.34;101110.63;5075602;28;1201;-65
2022/02/25 09:01:33;;;;;;;;;;;;;;;19.86;37.88;101116.28;5075072;28;1567;-65
2022/02/25 09:04:01;;;;;;;;;;;;;;;19.63;38.18;101106.78;5106866;28;2343;-65
2022/02/25 09:06:28;;;;;;;;;;;;;;;19.42;38.92;101112.41;5076422;28;1364;-65
2022/02/25 09:08:53;;;;;;;;;;;;;;;19.12;39.16;101108.69;5078484;28;1506;-65
2022/02/25 09:11:19;;;;;;;;;;;;;;;18.85;39.95;101094.47;5074679;28;1220;-65
2022/02/25 09:13:45;;;;;;;;;;;;;;;18.53;40.07;101099.22;5077937;28;1284;-72
2022/02/25 09:16:11;;;;;;;;;;;;;;;18.24;39.36;101105.34;5074362;28;1659;-66
2022/02/25 09:18:37;;;;;;;;;;;;;;;17.89;39.47;101086.88;5074991;28;1247;-65
2022/02/25 09:21:02;;;;;;;;;;;;;;;17.72;38.71;101079.69;5075394;28;1443;-67
2022/02/25 09:23:28;;;;;;;;;;;;;;;17.56;38.40;101083.56;5068586;28;1909;-68
2022/02/25 09:25:53;;;;;;;;;;;;;;;17.50;37.99;101073.63;5075859;28;789;-67
2022/02/25 09:28:19;;;;;;;;;;;;;;;17.26;38.00;101069.47;5075610;28;885;-66
2022/02/25 09:30:44;;;;;;;;;;;;;;;17.18;38.00;101055.41;5079675;28;1439;-65
2022/02/25 09:33:10;;;;;;;;;;;;;;;17.08;38.20;101064.44;5077742;28;1579;-65
2022/02/25 09:35:35;;;;;;;;;;;;;;;17.14;38.75;101057.06;5077497;28;1542;-64
2022/02/25 09:38:01;;;;;;;;;;;;;;;17.26;40.27;101057.63;5075790;28;827;-70
2022/02/25 09:40:26;;;;;;;;;;;;;;;17.40;41.04;101058.78;5075720;28;872;-69
2022/02/25 09:42:51;;;;;;;;;;;;;;;17.56;41.49;101059.63;5074961;28;1902;-70
2022/02/25 09:45:17;;;;;;;;;;;;;;;17.47;42.22;101055.75;5076181;28;1269;-67
2022/02/25 09:47:43;;;;;;;;;;;;;;;17.57;42.77;101052.19;5070615;28;824;-68
2022/02/25 09:50:09;;;;;;;;;;;;;;;17.74;42.97;101047.25;5106729;28;1526;-67
2022/02/25 09:52:35;;;;;;;;;;;;;;;17.74;43.04;101038.16;5074744;28;1523;-65
2022/02/25 09:55:01;;;;;;;;;;;;;;;17.84;43.33;101040.09;5075450;28;1366;-64
2022/02/25 09:57:28;;;;;;;;;;;;;;;17.74;43.86;101024.41;5079646;28;1561;-66
2022/02/25 09:59:53;;;;;;;;;;;;;;;17.76;43.74;101022.22;5072205;28;1233;-66
2022/02/25 10:02:19;;;;;;;;;;;;;;;17.78;43.83;101020.00;5075336;28;1898;-66
2022/02/25 10:04:45;;;;;;;;;;;;;;;17.83;43.79;101016.47;5107672;28;1353;-65
2022/02/25 10:07:26;;;;;;;;;;;;;;;17.86;43.69;101018.66;5077343;28;774;-68
2022/02/25 10:09:52;;;;;;;;;;;;;;;17.78;44.24;101020.00;5077612;28;1206;-66
2022/02/25 10:12:17;;;;;;;;;;;;;;;17.80;44.20;101023.34;5079412;28;696;-63
2022/02/25 10:14:43;;;;;;;;;;;;;;;17.80;44.38;101017.81;5078551;28;1020;-65
2022/02/25 10:17:09;;;;;;;;;;;;;;;17.76;44.22;101023.03;5078407;28;985;-66
2022/02/25 10:19:35;;;;;;;;;;;;;;;17.81;44.25;101022.25;5078442;28;846;-66
2022/02/25 10:22:13;;;;;;;;;;;;;;;17.70;44.57;101004.09;5077995;28;1979;-64
2022/02/25 10:24:45;;;;;;;;;;;;;;;17.61;44.45;101003.78;5078517;28;1217;-63
2022/02/25 10:27:17;;;;;;;;;;;;;;;17.72;44.39;101002.69;5077706;28;1056;-61
2022/02/25 10:29:52;;;;;;;;;;;;;;;17.77;44.07;100991.69;5078686;28;821;-60
2022/02/25 10:32:19;;;;;;;;;;;;;;;17.77;44.25;100986.19;5078481;28;990;-61
2022/02/25 10:34:44;;;;;;;;;;;;;;;17.82;44.25;100985.34;5077998;28;1085;-61
2022/02/25 10:37:10;;;;;;;;;;;;;;;17.83;44.07;100991.69;5078419;28;924;-61
2022/02/25 10:39:36;;;;;;;;;;;;;;;17.83;43.90;100972.44;5078646;28;823;-61
2022/02/25 10:42:11;;;;;;;;;;;;;;;17.74;44.42;100977.66;5078320;28;1974;-60
2022/02/25 10:44:38;;;;;;;;;;;;;;;17.82;44.02;100984.53;5078620;28;789;-62
2022/02/25 10:47:10;;;;;;;;;;;;;;;17.81;43.89;100980.13;5078158;28;863;-61
2022/02/25 10:49:35;;;;;;;;;;;;;;;17.81;44.03;100969.13;5075458;28;807;-62
2022/02/25 10:52:01;;;;;;;;;;;;;;;17.78;43.88;100963.09;5078287;28;874;-62
2022/02/25 10:54:37;;;;;;;;;;;;;;;17.87;43.54;100957.84;5110743;28;1445;-63
2022/02/25 10:57:09;;;;;;;;;;;;;;;17.84;43.72;100960.31;5077870;28;886;-62
2022/02/25 10:59:44;;;;;;;;;;;;;;;17.85;43.63;100949.06;5078666;28;812;-62
2022/02/25 11:02:29;;;;;;;;;;;;;;;17.85;43.58;100946.31;5077065;28;1910;-63
2022/02/25 11:05:01;;;;;;;;;;;;;;;17.90;43.25;100950.97;5072855;28;765;-62
2022/02/25 11:07:27;;;;;;;;;;;;;;;17.82;43.59;100946.84;5078154;28;810;-62
2022/02/25 11:09:52;;;;;;;;;;;;;;;17.90;43.36;100948.22;5078520;28;725;-62
2022/02/25 11:12:18;;;;;;;;;;;;;;;17.84;43.37;100943.81;5077404;28;734;-62
2022/02/25 11:14:44;;;;;;;;;;;;;;;17.93;43.14;100939.44;5109751;28;1028;-63
2022/02/25 11:17:10;;;;;;;;;;;;;;;17.88;43.40;100936.66;5076985;28;969;-63
2022/02/25 11:19:35;;;;;;;;;;;;;;;17.87;43.51;100935.03;5109658;28;781;-63
2022/02/25 11:22:03;;;;;;;;;;;;;;;17.90;43.00;100938.03;5110331;28;1905;-63
2022/02/25 11:24:29;;;;;;;;;;;;;;;17.84;43.24;100930.06;5078091;28;830;-63
2022/02/25 11:26:55;;;;;;;;;;;;;;;17.81;43.34;100930.63;5109614;28;769;-63
2022/02/25 11:29:20;;;;;;;;;;;;;;;17.98;42.83;100925.69;5071055;28;857;-63
2022/02/25 11:31:46;;;;;;;;;;;;;;;17.90;42.98;100928.97;5109768;28;914;-62
2022/02/25 11:34:13;;;;;;;;;;;;;;;17.98;42.75;100936.69;5077390;28;853;-63
2022/02/25 11:36:45;;;;;;;;;;;;;;;17.99;42.75;100926.50;5109832;28;825;-63
2022/02/25 11:39:17;;;;;;;;;;;;;;;18.15;42.02;100925.34;5076784;28;808;-63
2022/02/25 11:41:47;;;;;;;;;;;;;;;18.10;42.21;100926.19;5102900;28;809;-63
2022/02/25 11:44:13;;;;;;;;;;;;;;;17.95;42.34;100921.56;5071135;28;1983;-62
2022/02/25 11:46:41;;;;;;;;;;;;;;;17.77;42.73;100922.13;5077084;28;828;-62
2022/02/25 11:49:12;;;;;;;;;;;;;;;17.77;42.90;100917.44;5071183;28;786;-63
2022/02/25 11:51:39;;;;;;;;;;;;;;;17.69;43.10;100901.50;5076400;28;1171;-62
2022/02/25 11:57:08;;;;;;;;;;;;;;;17.61;42.97;100910.31;5077134;28;909;-63
2022/02/25 11:59:33;;;;;;;;;;;;;;;17.56;43.35;100907.59;5076954;28;1052;-63
2022/02/25 12:02:12;;;;;;;;;;;;;;;17.59;42.98;100907.84;5076484;28;1905;-64
2022/02/25 12:04:41;;;;;;;;;;;;;;;17.52;43.28;100901.00;5076859;28;834;-67
2022/02/25 12:07:07;;;;;;;;;;;;;;;17.50;43.35;100909.50;5076595;28;1551;-65
2022/02/25 12:09:44;;;;;;;;;;;;;;;17.49;43.49;100915.25;5077166;28;743;-64
2022/02/25 12:12:22;;;;;;;;;;;;;;;17.49;43.28;100912.50;5070724;28;825;-66
2022/02/25 12:15:06;;;;;;;;;;;;;;;17.48;43.63;100905.38;5076246;28;1139;-62
2022/02/25 12:17:35;;;;;;;;;;;;;;;17.40;43.49;100904.00;5075894;28;997;-64
2022/02/25 12:20:07;;;;;;;;;;;;;;;17.43;43.44;100904.28;5077108;28;825;-62
2022/02/25 12:22:51;;;;;;;;;;;;;;;17.26;43.77;100904.56;5076330;28;1910;-62
2022/02/25 12:25:35;;;;;;;;;;;;;;;17.35;43.54;100890.25;5070298;28;834;-66
2022/02/25 12:28:19;;;;;;;;;;;;;;;17.38;43.78;100890.53;5076349;28;833;-67
2022/02/25 12:30:45;;;;;;;;;;;;;;;17.42;43.61;100879.84;5075318;28;1238;-62
2022/02/25 12:33:29;;;;;;;;;;;;;;;17.40;43.34;100874.63;5076140;28;896;-62
2022/02/25 12:35:56;;;;;;;;;;;;;;;17.50;43.10;100881.19;5070383;28;732;-63
2022/02/25 12:38:23;;;;;;;;;;;;;;;17.48;43.11;100875.16;5076644;28;741;-62
2022/02/25 12:40:49;;;;;;;;;;;;;;;17.51;43.14;100869.09;5069775;28;873;-65
2022/02/25 12:43:15;;;;;;;;;;;;;;;17.44;43.20;100861.94;5075900;28;1909;-63
2022/02/25 12:45:40;;;;;;;;;;;;;;;17.54;42.97;100874.03;5076165;28;808;-62
2022/02/25 12:48:06;;;;;;;;;;;;;;;17.41;43.20;100867.19;5076544;28;877;-63
2022/02/25 12:50:31;;;;;;;;;;;;;;;17.33;43.52;100860.31;5076138;28;865;-62
2022/02/25 12:53:03;;;;;;;;;;;;;;;17.45;43.19;100868.28;5075992;28;848;-62
2022/02/25 12:55:28;;;;;;;;;;;;;;;17.62;43.09;100868.78;5075644;28;861;-62
2022/02/25 12:57:54;;;;;;;;;;;;;;;17.89;42.33;100870.38;5075888;28;914;-63